createdAt,value
2019-05-28T00:08:01.266Z,17.60
2019-05-28T00:18:06.524Z,17.60
2019-05-28T00:28:11.773Z,17.60
2019-05-28T00:38:17.027Z,17.60
2019-05-28T00:48:22.729Z,17.50
2019-05-28T00:58:28.334Z,17.60
2019-05-28T01:08:33.750Z,17.60
2019-05-28T01:18:39.369Z,17.60
2019-05-28T01:28:45.032Z,17.60
2019-05-28T01:38:50.564Z,17.60
2019-05-28T01:48:55.973Z,17.50
2019-05-28T01:59:01.968Z,17.50
2019-05-28T02:09:07.842Z,17.50
2019-05-28T02:19:13.315Z,17.60
2019-05-28T02:29:19.072Z,17.60
2019-05-28T02:39:24.372Z,17.60
2019-05-28T02:49:29.619Z,17.60
2019-05-28T02:59:36.990Z,17.60
2019-05-28T03:09:45.398Z,17.60
2019-05-28T03:19:51.026Z,17.50
2019-05-28T03:29:56.387Z,17.60
2019-05-28T03:40:04.597Z,17.70
2019-05-28T03:50:10.166Z,17.70
2019-05-28T04:00:15.412Z,17.70
2019-05-28T04:10:21.069Z,17.70
2019-05-28T04:20:26.302Z,17.60
2019-05-28T04:30:31.644Z,17.60
2019-05-28T04:40:37.415Z,17.60
2019-05-28T04:50:42.758Z,17.70
2019-05-28T05:00:48.091Z,17.70
2019-05-28T05:10:53.375Z,17.70
2019-05-28T05:20:58.660Z,17.80
2019-05-28T05:31:04.018Z,17.90
2019-05-28T05:41:09.355Z,18.00
2019-05-28T05:51:14.669Z,18.00
2019-05-28T06:01:20.272Z,18.10
2019-05-28T06:11:25.817Z,18.20
2019-05-28T06:21:31.185Z,18.30
2019-05-28T06:31:36.508Z,18.30
2019-05-28T06:41:41.852Z,18.50
2019-05-28T06:51:47.160Z,18.80
2019-05-28T07:01:52.465Z,18.90
2019-05-28T07:11:57.752Z,19.00
2019-05-28T07:22:03.060Z,19.20
2019-05-28T07:32:08.367Z,19.30
2019-05-28T07:42:13.648Z,19.40
2019-05-28T07:52:18.964Z,19.40
2019-05-28T08:02:24.244Z,19.50
2019-05-28T08:12:29.563Z,19.60
2019-05-28T08:22:42.151Z,19.70
2019-05-28T08:32:42.187Z,20.00
2019-05-28T08:42:47.513Z,20.30
2019-05-28T08:52:52.971Z,20.50
2019-05-28T09:02:58.330Z,20.60
2019-05-28T09:13:04.087Z,20.70
2019-05-28T09:23:09.437Z,20.80
2019-05-28T09:33:14.767Z,21.00
2019-05-28T09:43:20.106Z,21.30
2019-05-28T09:53:25.404Z,21.50
2019-05-28T10:03:31.209Z,21.70
2019-05-28T10:13:40.083Z,21.70
2019-05-28T10:23:43.903Z,21.80
2019-05-28T10:33:49.261Z,22.10
2019-05-28T10:43:54.798Z,22.40
2019-05-28T10:54:00.175Z,22.50
2019-05-28T11:04:05.612Z,22.40
2019-05-28T11:14:11.278Z,22.50
2019-05-28T11:24:16.599Z,22.90
2019-05-28T11:34:21.855Z,22.40
2019-05-28T11:44:27.418Z,22.60
2019-05-28T11:54:32.774Z,23.00
2019-05-28T12:04:38.078Z,22.60
2019-05-28T12:14:43.720Z,22.50
2019-05-28T12:24:49.038Z,22.20
2019-05-28T12:34:54.537Z,22.40
2019-05-28T12:45:09.269Z,22.20
2019-05-28T12:55:07.310Z,22.40
2019-05-28T13:05:14.056Z,22.50
2019-05-28T13:15:19.776Z,22.60
2019-05-28T13:25:25.023Z,22.50
2019-05-28T13:35:30.502Z,22.50
2019-05-28T13:45:36.017Z,22.00
2019-05-28T13:55:41.533Z,21.90
2019-05-28T14:05:46.785Z,21.70
2019-05-28T14:15:52.025Z,21.70
2019-05-28T14:25:57.269Z,21.40
2019-05-28T14:36:01.558Z,21.30
2019-05-28T14:46:06.832Z,21.20
2019-05-28T14:56:12.182Z,21.10
2019-05-28T15:06:17.565Z,21.20
2019-05-28T15:16:23.252Z,21.20
2019-05-28T15:26:28.544Z,21.30
2019-05-28T15:36:34.094Z,21.40
2019-05-28T15:46:39.347Z,21.40
2019-05-28T15:56:44.615Z,21.40
2019-05-28T16:06:50.186Z,21.20
2019-05-28T16:16:55.440Z,21.20
2019-05-28T16:27:00.754Z,21.00
2019-05-28T16:37:06.011Z,20.90
2019-05-28T16:47:18.101Z,20.80
2019-05-28T16:57:18.652Z,20.50
2019-05-28T17:07:24.031Z,19.70
2019-05-28T17:17:29.646Z,19.20
2019-05-28T17:27:34.950Z,18.80
2019-05-28T17:37:40.418Z,18.50
2019-05-28T17:47:45.718Z,18.40
2019-05-28T17:57:51.009Z,18.00
2019-05-28T18:07:56.265Z,17.60
2019-05-28T18:18:01.529Z,17.40
2019-05-28T18:28:06.793Z,17.40
2019-05-28T18:38:12.301Z,17.20
2019-05-28T18:48:17.553Z,17.00
2019-05-28T18:58:23.151Z,17.00
2019-05-28T19:08:28.581Z,17.00
2019-05-28T19:18:34.381Z,16.90
2019-05-28T19:28:39.681Z,16.90
2019-05-28T19:38:46.125Z,16.80
2019-05-28T19:48:51.608Z,16.80
2019-05-28T19:58:57.245Z,16.80
2019-05-28T20:09:02.538Z,16.90
2019-05-28T20:19:07.787Z,16.90
2019-05-28T20:29:13.033Z,16.90
2019-05-28T20:39:18.286Z,16.90
2019-05-28T20:49:23.540Z,16.80
2019-05-28T20:59:29.020Z,16.70
2019-05-28T21:09:34.285Z,16.60
2019-05-28T21:19:39.784Z,16.60
2019-05-28T21:29:45.043Z,16.60
2019-05-28T21:39:51.384Z,16.40
2019-05-28T21:49:58.850Z,16.40
2019-05-28T22:00:08.458Z,16.30
2019-05-28T22:10:14.077Z,16.30
2019-05-28T22:20:19.445Z,16.40
2019-05-28T22:30:25.137Z,16.30
2019-05-28T22:40:30.576Z,16.30
2019-05-28T22:50:35.919Z,16.10
2019-05-28T23:00:41.295Z,16.10
2019-05-28T23:10:46.824Z,16.20
2019-05-28T23:20:52.086Z,16.30
2019-05-28T23:30:57.392Z,16.20
2019-05-28T23:41:03.094Z,16.20
2019-05-28T23:51:08.478Z,16.20
